Robert E. Mcallister — WDC8669 — position and weather

sailwx.info

Track history (hours):
 
Tides and Currents Weather Stations Pressure Air Temp Water Temp Dewpoint Dewpoint Depression Visibility Wind Speed Wind Dir Waves Ship Positions

Robert E. Mcallister

Owner: McAllister Towing & Transportation, Staten Island, NY. More information available from US FCC via Universal Licensing System and Coast Guard Vessel Documentation Center.

Last reported at 2015-Jul-28 09:33 UTC. Time now 2015-Jul-28 10:22 UTC.
Position N 40°38' W 074°10'.

Length 34 m; draft 4.3 m.

Type: Tug. MMSI: 367091120.

Date/timePositionNaut miles runAvg speedWind from/ knotsBaromVisibWave heightAir tempDewpointWater temp
2015-Jul-28 09:33N 40°38' W 074°10'0 0.0
2015-Jul-28 08:33N 40°38' W 074°10'0 0.0
2015-Jul-28 07:33N 40°38' W 074°10'0 0.0
2015-Jul-28 06:33N 40°38' W 074°10'0 0.0
2015-Jul-28 05:33N 40°38' W 074°10'0 0.0
2015-Jul-28 04:33N 40°38' W 074°10'2 2.0
2015-Jul-28 03:33N 40°40' W 074°08'1 0.5
2015-Jul-28 02:33N 40°41' W 074°08'2 2.4
2015-Jul-28 01:33N 40°38' W 074°10'0 0.0
2015-Jul-28 00:33N 40°38' W 074°10'0 0.0
2015-Jul-27 23:33N 40°38' W 074°10'4 4.2
2015-Jul-27 22:33N 40°40' W 074°05'4 3.5
2015-Jul-27 21:32N 40°37' W 074°03'5 5.5
2015-Jul-27 20:33N 40°38' W 074°10'0 0.1
2015-Jul-27 19:33N 40°38' W 074°10'0 0.0
2015-Jul-27 18:33N 40°38' W 074°10'0 0.0
2015-Jul-27 17:33N 40°38' W 074°10'0 0.0
2015-Jul-27 16:33N 40°38' W 074°10'2 1.7
2015-Jul-27 15:33N 40°40' W 074°09'1 1.5
2015-Jul-27 14:32N 40°39' W 074°08'4 4.2
2015-Jul-27 13:33N 40°37' W 074°03'6 5.8
2015-Jul-27 12:33N 40°41' W 074°09'2 1.6
2015-Jul-27 11:33N 40°39' W 074°09'4 4.2
2015-Jul-27 10:33N 40°38' W 074°03'5 4.8
2015-Jul-27 09:33N 40°38' W 074°10'0 0.0
2015-Jul-27 08:33N 40°38' W 074°10'0 0.0
2015-Jul-27 07:33N 40°38' W 074°10'0 0.0
2015-Jul-27 06:33N 40°38' W 074°10'0 0.4
2015-Jul-27 05:33N 40°39' W 074°10'0 0.3
2015-Jul-27 04:33N 40°39' W 074°10'0 0.2
2015-Jul-27 03:33N 40°38' W 074°10'0 0.0
2015-Jul-27 02:33N 40°38' W 074°10'0 0.0
2015-Jul-27 01:31N 40°38' W 074°10'0 0.0
2015-Jul-27 00:31N 40°38' W 074°10'4 4.0
2015-Jul-26 23:33N 40°39' W 074°05'1 1.0
2015-Jul-26 22:33N 40°40' W 074°04'0 0.2
2015-Jul-26 21:33N 40°40' W 074°04'0 0.0
2015-Jul-26 20:33N 40°40' W 074°04'0 0.0
2015-Jul-26 19:33N 40°40' W 074°04'1 0.5
2015-Jul-26 18:33N 40°40' W 074°05'1 0.5
2015-Jul-26 17:33N 40°40' W 074°04'0 0.0
2015-Jul-26 16:33N 40°40' W 074°04'0 0.0
2015-Jul-26 15:33N 40°40' W 074°04'0 0.0
2015-Jul-26 14:33N 40°40' W 074°04'0 0.0
2015-Jul-26 13:33N 40°40' W 074°04'0 0.0
2015-Jul-26 12:33N 40°40' W 074°04'0 0.0
2015-Jul-26 11:33N 40°40' W 074°04'0 0.0
2015-Jul-26 10:33N 40°40' W 074°04'0 0.0
2015-Jul-26 09:33N 40°40' W 074°04'1 1.0
2015-Jul-26 08:33N 40°39' W 074°05'1 0.7
2015-Jul-26 07:33N 40°39' W 074°06'0 0.0
2015-Jul-26 06:33N 40°39' W 074°06'5 0.9
2015-Jul-26 00:33N 40°37' W 074°12'2 2.2
2015-Jul-25 23:33N 40°38' W 074°10'0 0.0
2015-Jul-25 22:33N 40°38' W 074°10'0 0.0
2015-Jul-25 21:33N 40°38' W 074°10'0 0.0
2015-Jul-25 20:33N 40°38' W 074°10'0 0.0
2015-Jul-25 19:33N 40°38' W 074°10'0 0.0
2015-Jul-25 18:33N 40°38' W 074°10'0 0.0
2015-Jul-25 17:33N 40°38' W 074°10'3 3.4
2015-Jul-25 16:33N 40°42' W 074°08'3 3.5
2015-Jul-25 15:33N 40°38' W 074°10'0 0.0
2015-Jul-25 14:33N 40°38' W 074°10'0 0.0
2015-Jul-25 13:33N 40°38' W 074°10'0 0.0
2015-Jul-25 12:33N 40°38' W 074°10'1 0.6
2015-Jul-25 11:33N 40°39' W 074°09'2 1.7
2015-Jul-25 10:33N 40°40' W 074°08'2 2.2
2015-Jul-25 09:33N 40°38' W 074°10'0 0.0
2015-Jul-25 08:33N 40°38' W 074°10'0 0.0
2015-Jul-25 07:33N 40°38' W 074°10'0 0.0
2015-Jul-25 06:33N 40°38' W 074°10'0 0.0
2015-Jul-25 05:33N 40°38' W 074°10'0 0.0
2015-Jul-25 04:33N 40°38' W 074°10'0 0.0
2015-Jul-25 03:33N 40°38' W 074°10'0 0.0
2015-Jul-25 02:33N 40°38' W 074°10'2 2.2
2015-Jul-25 01:33N 40°39' W 074°07'3 2.7
2015-Jul-25 00:33N 40°38' W 074°04'4 3.9
2015-Jul-24 23:33N 40°41' W 074°01'0 0.1
2015-Jul-24 22:33N 40°41' W 074°01'6 6.0
2015-Jul-24 21:32N 40°40' W 074°09'1 0.9
2015-Jul-24 20:33N 40°41' W 074°09'4 3.8
2015-Jul-24 19:31N 40°38' W 074°12'2 2.0
2015-Jul-24 18:33N 40°38' W 074°10'0 0.0
2015-Jul-24 17:33N 40°38' W 074°10'1 0.8
2015-Jul-24 16:33N 40°39' W 074°09'1 1.4
2015-Jul-24 15:32N 40°40' W 074°08'2 2.2
2015-Jul-24 14:33N 40°38' W 074°10'0 0.0
2015-Jul-24 13:33N 40°38' W 074°10'1 1.4
2015-Jul-24 12:33N 40°39' W 074°08'1 0.9
2015-Jul-24 11:32N 40°38' W 074°09'2 1.7
2015-Jul-24 10:33N 40°40' W 074°08'2 2.0
2015-Jul-24 09:33N 40°38' W 074°10'0 0.0
2015-Jul-24 08:33N 40°38' W 074°10'0 0.0
2015-Jul-24 07:33N 40°38' W 074°10'5 0.9
2015-Jul-24 02:27N 40°34' W 074°13'5 5.6
2015-Jul-24 01:33N 40°39' W 074°10'1 1.3
2015-Jul-24 00:33N 40°38' W 074°11'2 1.9
2015-Jul-23 23:24N 40°39' W 074°09'2 2.4
2015-Jul-23 22:33N 40°41' W 074°08'1 1.4
2015-Jul-23 21:33N 40°40' W 074°08'2 1.6
2015-Jul-23 20:33N 40°39' W 074°07'0 0.4
2015-Jul-23 19:33N 40°39' W 074°07'4 3.8
2015-Jul-23 18:33N 40°38' W 074°12'3 3.4
2015-Jul-23 17:33N 40°39' W 074°08'4 3.5
2015-Jul-23 16:33N 40°37' W 074°03'5 5.1
2015-Jul-23 15:33N 40°38' W 074°10'1 0.8
2015-Jul-23 14:33N 40°39' W 074°09'3 2.6
2015-Jul-23 13:33N 40°39' W 074°05'3 3.4
2015-Jul-23 12:33N 40°38' W 074°10'0 0.0
2015-Jul-23 11:33N 40°38' W 074°10'0 0.0
2015-Jul-23 10:33N 40°38' W 074°10'0 0.5
2015-Jul-23 09:33N 40°39' W 074°09'1 1.3
2015-Jul-23 08:31N 40°38' W 074°08'1 1.4
2015-Jul-23 07:33N 40°40' W 074°09'1 0.8
2015-Jul-23 06:33N 40°39' W 074°09'1 0.8
2015-Jul-23 05:33N 40°38' W 074°10'0 0.0
2015-Jul-23 04:33N 40°38' W 074°10'0 0.0
2015-Jul-23 03:33N 40°38' W 074°10'0 0.0
2015-Jul-23 02:33N 40°38' W 074°10'0 0.0
2015-Jul-23 01:33N 40°38' W 074°10'0 0.0
2015-Jul-23 00:34N 40°38' W 074°10'0 0.0
2015-Jul-22 23:34N 40°38' W 074°10'2 2.3
2015-Jul-22 22:33N 40°39' W 074°07'3 2.6
2015-Jul-22 21:33N 40°41' W 074°09'2 2.4
2015-Jul-22 20:33N 40°38' W 074°09'3 1.7
2015-Jul-22 18:33N 40°36' W 074°12'2 2.1
2015-Jul-22 17:33N 40°38' W 074°12'2 1.9
2015-Jul-22 16:33N 40°38' W 074°10'0 0.0
2015-Jul-22 15:33N 40°38' W 074°10'0 0.2
2015-Jul-22 14:33N 40°39' W 074°10'3 2.1
2015-Jul-22 13:20N 40°37' W 074°12'2 3.2
2015-Jul-22 12:33N 40°38' W 074°10'0 0.0
2015-Jul-22 11:33N 40°38' W 074°10'0 0.0
2015-Jul-22 10:33N 40°38' W 074°10'0 0.0
2015-Jul-22 09:33N 40°38' W 074°10'0 0.0
2015-Jul-22 08:33N 40°38' W 074°10'2 2.2
2015-Jul-22 07:33N 40°37' W 074°12'6 3.0
2015-Jul-22 05:24N 40°31' W 074°15'4 3.8
2015-Jul-22 04:25N 40°34' W 074°13'3 1.8
2015-Jul-22 02:33N 40°38' W 074°12'0 0.1
2015-Jul-22 01:33N 40°38' W 074°12'0 0.2
2015-Jul-22 00:33N 40°38' W 074°12'3 2.6
2015-Jul-21 23:33N 40°38' W 074°09'3 3.3
2015-Jul-21 22:33N 40°42' W 074°09'0 0.4
2015-Jul-21 21:33N 40°41' W 074°08'3 2.8
2015-Jul-21 20:33N 40°39' W 074°07'2 1.6
2015-Jul-21 19:34N 40°38' W 074°09'1 0.6
2015-Jul-21 18:33N 40°38' W 074°10'1 1.2
2015-Jul-21 17:27N 40°40' W 074°09'4 4.6
2015-Jul-21 16:33N 40°39' W 074°04'3 3.3
2015-Jul-21 15:33N 40°39' W 074°08'1 1.1
2015-Jul-21 14:33N 40°38' W 074°10'0 0.0
2015-Jul-21 13:33N 40°38' W 074°10'0 0.0
2015-Jul-21 12:33N 40°38' W 074°10'5 4.6
2015-Jul-21 11:33N 40°38' W 074°04'4 3.9
2015-Jul-21 10:34N 40°40' W 074°09'0 0.3
2015-Jul-21 09:33N 40°39' W 074°09'1 1.3
2015-Jul-21 08:33N 40°38' W 074°10'0 0.0
2015-Jul-21 07:33N 40°38' W 074°10'0 0.0
2015-Jul-21 06:33N 40°38' W 074°10'2 2.3
2015-Jul-21 05:31N 40°39' W 074°07'3 2.7
2015-Jul-21 04:33N 40°38' W 074°03'5 4.9
2015-Jul-21 03:33N 40°38' W 074°10'0 0.0
2015-Jul-21 02:33N 40°38' W 074°10'0 0.0
2015-Jul-21 01:33N 40°38' W 074°10'0 0.0
2015-Jul-21 00:33N 40°38' W 074°10'2 2.3
2015-Jul-20 23:33N 40°40' W 074°08'0 0.1
2015-Jul-20 22:34N 40°40' W 074°08'1 0.9
2015-Jul-20 21:33N 40°40' W 074°09'4 3.6
2015-Jul-20 20:33N 40°39' W 074°04'1 1.3
2015-Jul-20 19:33N 40°38' W 074°04'1 1.3
2015-Jul-20 18:33N 40°39' W 074°05'6 5.9
2015-Jul-20 17:33N 40°38' W 074°12'0 0.2
2015-Jul-20 16:33N 40°38' W 074°12'3 3.3
2015-Jul-20 15:32N 40°39' W 074°08'1 1.3
2015-Jul-20 14:33N 40°39' W 074°09'1 0.8
2015-Jul-20 13:33N 40°38' W 074°08'1 1.1
2015-Jul-20 12:33N 40°38' W 074°10'0 0.0
2015-Jul-20 11:33N 40°38' W 074°10'0 0.0
2015-Jul-20 10:33N 40°38' W 074°10'0 0.0
2015-Jul-20 09:33N 40°38' W 074°10'0 0.0
2015-Jul-20 08:33N 40°38' W 074°10'0 0.0
2015-Jul-20 07:33N 40°38' W 074°10'0 0.0
2015-Jul-20 06:33N 40°38' W 074°10'7 7.0
2015-Jul-20 05:33N 40°41' W 074°01'3 2.5
2015-Jul-20 04:33N 40°42' W 073°59'1 1.4
2015-Jul-20 03:33N 40°42' W 074°00'8 8.0
2015-Jul-20 02:33N 40°38' W 074°10'0 0.1
2015-Jul-20 01:34N 40°38' W 074°10'0 0.0
2015-Jul-20 00:33N 40°38' W 074°10'0 0.4
2015-Jul-19 23:33N 40°39' W 074°10'0 0.4
2015-Jul-19 22:33N 40°38' W 074°10'0 0.0
2015-Jul-19 21:33N 40°38' W 074°10'0 0.0
2015-Jul-19 20:33N 40°38' W 074°10'0 0.0
2015-Jul-19 19:33N 40°38' W 074°10'0 0.0
2015-Jul-19 18:33N 40°38' W 074°10'2 1.5
2015-Jul-19 17:33N 40°39' W 074°08'1 1.5
2015-Jul-19 16:33N 40°40' W 074°08'2 1.8
2015-Jul-19 15:33N 40°38' W 074°09'0 0.3
2015-Jul-19 14:34N 40°38' W 074°10'0 0.0
2015-Jul-19 13:33N 40°38' W 074°10'0 0.0
2015-Jul-19 12:33N 40°38' W 074°10'0 0.0
2015-Jul-19 11:34N 40°38' W 074°10'2 2.3
2015-Jul-19 10:33N 40°41' W 074°08'2 2.3
2015-Jul-19 09:33N 40°38' W 074°10'0 0.0
2015-Jul-19 08:33N 40°38' W 074°10'0 0.0
2015-Jul-19 07:34N 40°38' W 074°10'0 0.0
2015-Jul-19 06:34N 40°38' W 074°10'0 0.0
2015-Jul-19 05:34N 40°38' W 074°10'2 1.8
2015-Jul-19 04:31N 40°38' W 074°12'4 0.9
2015-Jul-19 00:33N 40°40' W 074°08'1 0.9
2015-Jul-18 23:33N 40°41' W 074°09'0 0.0
2015-Jul-18 22:33N 40°41' W 074°09'0 0.5
2015-Jul-18 21:33N 40°40' W 074°08'5 4.6
2015-Jul-18 20:33N 40°38' W 074°03'5 5.1
2015-Jul-18 19:33N 40°38' W 074°10'0 0.0
2015-Jul-18 18:33N 40°38' W 074°10'1 1.5
2015-Jul-18 17:33N 40°40' W 074°09'1 0.9
2015-Jul-18 16:34N 40°40' W 074°08'0 0.0
2015-Jul-18 15:33N 40°40' W 074°08'0 0.0
2015-Jul-18 14:33N 40°40' W 074°08'0 0.0
2015-Jul-18 13:33N 40°40' W 074°08'0 0.0
2015-Jul-18 12:33N 40°40' W 074°08'0 0.4
2015-Jul-18 11:33N 40°40' W 074°08'3 3.1
2015-Jul-18 10:33N 40°39' W 074°05'6 5.7
2015-Jul-18 09:33N 40°42' W 073°58'  
Track history (hours):
 
Tides and Currents Weather Stations Pressure Air Temp Water Temp Dewpoint Dewpoint Depression Visibility Wind Speed Wind Dir Waves Ship Positions

Robert E. Mcallister

Owner: McAllister Towing & Transportation, Staten Island, NY. More information available from US FCC via Universal Licensing System and Coast Guard Vessel Documentation Center.

Last reported at 2015-Jul-28 09:33 UTC. Time now 2015-Jul-28 10:22 UTC.
Position N 40°38' W 074°10'.

Length 34 m; draft 4.3 m.

Type: Tug. MMSI: 367091120.

Date/timePositionNaut miles runAvg speedWind from/ knotsBaromVisibWave heightAir tempDewpointWater temp
2015-Jul-28 09:33N 40°38' W 074°10'0 0.0
2015-Jul-28 08:33N 40°38' W 074°10'0 0.0
2015-Jul-28 07:33N 40°38' W 074°10'0 0.0
2015-Jul-28 06:33N 40°38' W 074°10'0 0.0
2015-Jul-28 05:33N 40°38' W 074°10'0 0.0
2015-Jul-28 04:33N 40°38' W 074°10'2 2.0
2015-Jul-28 03:33N 40°40' W 074°08'1 0.5
2015-Jul-28 02:33N 40°41' W 074°08'2 2.4
2015-Jul-28 01:33N 40°38' W 074°10'0 0.0
2015-Jul-28 00:33N 40°38' W 074°10'0 0.0
2015-Jul-27 23:33N 40°38' W 074°10'4 4.2
2015-Jul-27 22:33N 40°40' W 074°05'4 3.5
2015-Jul-27 21:32N 40°37' W 074°03'5 5.5
2015-Jul-27 20:33N 40°38' W 074°10'0 0.1
2015-Jul-27 19:33N 40°38' W 074°10'0 0.0
2015-Jul-27 18:33N 40°38' W 074°10'0 0.0
2015-Jul-27 17:33N 40°38' W 074°10'0 0.0
2015-Jul-27 16:33N 40°38' W 074°10'2 1.7
2015-Jul-27 15:33N 40°40' W 074°09'1 1.5
2015-Jul-27 14:32N 40°39' W 074°08'4 4.2
2015-Jul-27 13:33N 40°37' W 074°03'6 5.8
2015-Jul-27 12:33N 40°41' W 074°09'2 1.6
2015-Jul-27 11:33N 40°39' W 074°09'4 4.2
2015-Jul-27 10:33N 40°38' W 074°03'5 4.8
2015-Jul-27 09:33N 40°38' W 074°10'0 0.0
2015-Jul-27 08:33N 40°38' W 074°10'0 0.0
2015-Jul-27 07:33N 40°38' W 074°10'0 0.0
2015-Jul-27 06:33N 40°38' W 074°10'0 0.4
2015-Jul-27 05:33N 40°39' W 074°10'0 0.3
2015-Jul-27 04:33N 40°39' W 074°10'0 0.2
2015-Jul-27 03:33N 40°38' W 074°10'0 0.0
2015-Jul-27 02:33N 40°38' W 074°10'0 0.0
2015-Jul-27 01:31N 40°38' W 074°10'0 0.0
2015-Jul-27 00:31N 40°38' W 074°10'4 4.0
2015-Jul-26 23:33N 40°39' W 074°05'1 1.0
2015-Jul-26 22:33N 40°40' W 074°04'0 0.2
2015-Jul-26 21:33N 40°40' W 074°04'0 0.0
2015-Jul-26 20:33N 40°40' W 074°04'0 0.0
2015-Jul-26 19:33N 40°40' W 074°04'1 0.5
2015-Jul-26 18:33N 40°40' W 074°05'1 0.5
2015-Jul-26 17:33N 40°40' W 074°04'0 0.0
2015-Jul-26 16:33N 40°40' W 074°04'0 0.0
2015-Jul-26 15:33N 40°40' W 074°04'0 0.0
2015-Jul-26 14:33N 40°40' W 074°04'0 0.0
2015-Jul-26 13:33N 40°40' W 074°04'0 0.0
2015-Jul-26 12:33N 40°40' W 074°04'0 0.0
2015-Jul-26 11:33N 40°40' W 074°04'0 0.0
2015-Jul-26 10:33N 40°40' W 074°04'0 0.0
2015-Jul-26 09:33N 40°40' W 074°04'1 1.0
2015-Jul-26 08:33N 40°39' W 074°05'1 0.7
2015-Jul-26 07:33N 40°39' W 074°06'0 0.0
2015-Jul-26 06:33N 40°39' W 074°06'5 0.9
2015-Jul-26 00:33N 40°37' W 074°12'2 2.2
2015-Jul-25 23:33N 40°38' W 074°10'0 0.0
2015-Jul-25 22:33N 40°38' W 074°10'0 0.0
2015-Jul-25 21:33N 40°38' W 074°10'0 0.0
2015-Jul-25 20:33N 40°38' W 074°10'0 0.0
2015-Jul-25 19:33N 40°38' W 074°10'0 0.0
2015-Jul-25 18:33N 40°38' W 074°10'0 0.0
2015-Jul-25 17:33N 40°38' W 074°10'3 3.4
2015-Jul-25 16:33N 40°42' W 074°08'3 3.5
2015-Jul-25 15:33N 40°38' W 074°10'0 0.0
2015-Jul-25 14:33N 40°38' W 074°10'0 0.0
2015-Jul-25 13:33N 40°38' W 074°10'0 0.0
2015-Jul-25 12:33N 40°38' W 074°10'1 0.6
2015-Jul-25 11:33N 40°39' W 074°09'2 1.7
2015-Jul-25 10:33N 40°40' W 074°08'2 2.2
2015-Jul-25 09:33N 40°38' W 074°10'0 0.0
2015-Jul-25 08:33N 40°38' W 074°10'0 0.0
2015-Jul-25 07:33N 40°38' W 074°10'0 0.0
2015-Jul-25 06:33N 40°38' W 074°10'0 0.0
2015-Jul-25 05:33N 40°38' W 074°10'0 0.0
2015-Jul-25 04:33N 40°38' W 074°10'0 0.0
2015-Jul-25 03:33N 40°38' W 074°10'0 0.0
2015-Jul-25 02:33N 40°38' W 074°10'2 2.2
2015-Jul-25 01:33N 40°39' W 074°07'3 2.7
2015-Jul-25 00:33N 40°38' W 074°04'4 3.9
2015-Jul-24 23:33N 40°41' W 074°01'0 0.1
2015-Jul-24 22:33N 40°41' W 074°01'6 6.0
2015-Jul-24 21:32N 40°40' W 074°09'1 0.9
2015-Jul-24 20:33N 40°41' W 074°09'4 3.8
2015-Jul-24 19:31N 40°38' W 074°12'2 2.0
2015-Jul-24 18:33N 40°38' W 074°10'0 0.0
2015-Jul-24 17:33N 40°38' W 074°10'1 0.8
2015-Jul-24 16:33N 40°39' W 074°09'1 1.4
2015-Jul-24 15:32N 40°40' W 074°08'2 2.2
2015-Jul-24 14:33N 40°38' W 074°10'0 0.0
2015-Jul-24 13:33N 40°38' W 074°10'1 1.4
2015-Jul-24 12:33N 40°39' W 074°08'1 0.9
2015-Jul-24 11:32N 40°38' W 074°09'2 1.7
2015-Jul-24 10:33N 40°40' W 074°08'2 2.0
2015-Jul-24 09:33N 40°38' W 074°10'0 0.0
2015-Jul-24 08:33N 40°38' W 074°10'0 0.0
2015-Jul-24 07:33N 40°38' W 074°10'5 0.9
2015-Jul-24 02:27N 40°34' W 074°13'5 5.6
2015-Jul-24 01:33N 40°39' W 074°10'1 1.3
2015-Jul-24 00:33N 40°38' W 074°11'2 1.9
2015-Jul-23 23:24N 40°39' W 074°09'2 2.4
2015-Jul-23 22:33N 40°41' W 074°08'1 1.4
2015-Jul-23 21:33N 40°40' W 074°08'2 1.6
2015-Jul-23 20:33N 40°39' W 074°07'0 0.4
2015-Jul-23 19:33N 40°39' W 074°07'4 3.8
2015-Jul-23 18:33N 40°38' W 074°12'3 3.4
2015-Jul-23 17:33N 40°39' W 074°08'4 3.5
2015-Jul-23 16:33N 40°37' W 074°03'5 5.1
2015-Jul-23 15:33N 40°38' W 074°10'1 0.8
2015-Jul-23 14:33N 40°39' W 074°09'3 2.6
2015-Jul-23 13:33N 40°39' W 074°05'3 3.4
2015-Jul-23 12:33N 40°38' W 074°10'0 0.0
2015-Jul-23 11:33N 40°38' W 074°10'0 0.0
2015-Jul-23 10:33N 40°38' W 074°10'0 0.5
2015-Jul-23 09:33N 40°39' W 074°09'1 1.3
2015-Jul-23 08:31N 40°38' W 074°08'1 1.4
2015-Jul-23 07:33N 40°40' W 074°09'1 0.8
2015-Jul-23 06:33N 40°39' W 074°09'1 0.8
2015-Jul-23 05:33N 40°38' W 074°10'0 0.0
2015-Jul-23 04:33N 40°38' W 074°10'0 0.0
2015-Jul-23 03:33N 40°38' W 074°10'0 0.0
2015-Jul-23 02:33N 40°38' W 074°10'0 0.0
2015-Jul-23 01:33N 40°38' W 074°10'0 0.0
2015-Jul-23 00:34N 40°38' W 074°10'0 0.0
2015-Jul-22 23:34N 40°38' W 074°10'2 2.3
2015-Jul-22 22:33N 40°39' W 074°07'3 2.6
2015-Jul-22 21:33N 40°41' W 074°09'2 2.4
2015-Jul-22 20:33N 40°38' W 074°09'3 1.7
2015-Jul-22 18:33N 40°36' W 074°12'2 2.1
2015-Jul-22 17:33N 40°38' W 074°12'2 1.9
2015-Jul-22 16:33N 40°38' W 074°10'0 0.0
2015-Jul-22 15:33N 40°38' W 074°10'0 0.2
2015-Jul-22 14:33N 40°39' W 074°10'3 2.1
2015-Jul-22 13:20N 40°37' W 074°12'2 3.2
2015-Jul-22 12:33N 40°38' W 074°10'0 0.0
2015-Jul-22 11:33N 40°38' W 074°10'0 0.0
2015-Jul-22 10:33N 40°38' W 074°10'0 0.0
2015-Jul-22 09:33N 40°38' W 074°10'0 0.0
2015-Jul-22 08:33N 40°38' W 074°10'2 2.2
2015-Jul-22 07:33N 40°37' W 074°12'6 3.0
2015-Jul-22 05:24N 40°31' W 074°15'4 3.8
2015-Jul-22 04:25N 40°34' W 074°13'3 1.8
2015-Jul-22 02:33N 40°38' W 074°12'0 0.1
2015-Jul-22 01:33N 40°38' W 074°12'0 0.2
2015-Jul-22 00:33N 40°38' W 074°12'3 2.6
2015-Jul-21 23:33N 40°38' W 074°09'3 3.3
2015-Jul-21 22:33N 40°42' W 074°09'0 0.4
2015-Jul-21 21:33N 40°41' W 074°08'3 2.8
2015-Jul-21 20:33N 40°39' W 074°07'2 1.6
2015-Jul-21 19:34N 40°38' W 074°09'1 0.6
2015-Jul-21 18:33N 40°38' W 074°10'1 1.2
2015-Jul-21 17:27N 40°40' W 074°09'4 4.6
2015-Jul-21 16:33N 40°39' W 074°04'3 3.3
2015-Jul-21 15:33N 40°39' W 074°08'1 1.1
2015-Jul-21 14:33N 40°38' W 074°10'0 0.0
2015-Jul-21 13:33N 40°38' W 074°10'0 0.0
2015-Jul-21 12:33N 40°38' W 074°10'5 4.6
2015-Jul-21 11:33N 40°38' W 074°04'4 3.9
2015-Jul-21 10:34N 40°40' W 074°09'0 0.3
2015-Jul-21 09:33N 40°39' W 074°09'1 1.3
2015-Jul-21 08:33N 40°38' W 074°10'0 0.0
2015-Jul-21 07:33N 40°38' W 074°10'0 0.0
2015-Jul-21 06:33N 40°38' W 074°10'2 2.3
2015-Jul-21 05:31N 40°39' W 074°07'3 2.7
2015-Jul-21 04:33N 40°38' W 074°03'5 4.9
2015-Jul-21 03:33N 40°38' W 074°10'0 0.0
2015-Jul-21 02:33N 40°38' W 074°10'0 0.0
2015-Jul-21 01:33N 40°38' W 074°10'0 0.0
2015-Jul-21 00:33N 40°38' W 074°10'2 2.3
2015-Jul-20 23:33N 40°40' W 074°08'0 0.1
2015-Jul-20 22:34N 40°40' W 074°08'1 0.9
2015-Jul-20 21:33N 40°40' W 074°09'4 3.6
2015-Jul-20 20:33N 40°39' W 074°04'1 1.3
2015-Jul-20 19:33N 40°38' W 074°04'1 1.3
2015-Jul-20 18:33N 40°39' W 074°05'6 5.9
2015-Jul-20 17:33N 40°38' W 074°12'0 0.2
2015-Jul-20 16:33N 40°38' W 074°12'3 3.3
2015-Jul-20 15:32N 40°39' W 074°08'1 1.3
2015-Jul-20 14:33N 40°39' W 074°09'1 0.8
2015-Jul-20 13:33N 40°38' W 074°08'1 1.1
2015-Jul-20 12:33N 40°38' W 074°10'0 0.0
2015-Jul-20 11:33N 40°38' W 074°10'0 0.0
2015-Jul-20 10:33N 40°38' W 074°10'0 0.0
2015-Jul-20 09:33N 40°38' W 074°10'0 0.0
2015-Jul-20 08:33N 40°38' W 074°10'0 0.0
2015-Jul-20 07:33N 40°38' W 074°10'0 0.0
2015-Jul-20 06:33N 40°38' W 074°10'7 7.0
2015-Jul-20 05:33N 40°41' W 074°01'3 2.5
2015-Jul-20 04:33N 40°42' W 073°59'1 1.4
2015-Jul-20 03:33N 40°42' W 074°00'8 8.0
2015-Jul-20 02:33N 40°38' W 074°10'0 0.1
2015-Jul-20 01:34N 40°38' W 074°10'0 0.0
2015-Jul-20 00:33N 40°38' W 074°10'0 0.4
2015-Jul-19 23:33N 40°39' W 074°10'0 0.4
2015-Jul-19 22:33N 40°38' W 074°10'0 0.0
2015-Jul-19 21:33N 40°38' W 074°10'0 0.0
2015-Jul-19 20:33N 40°38' W 074°10'0 0.0
2015-Jul-19 19:33N 40°38' W 074°10'0 0.0
2015-Jul-19 18:33N 40°38' W 074°10'2 1.5
2015-Jul-19 17:33N 40°39' W 074°08'1 1.5
2015-Jul-19 16:33N 40°40' W 074°08'2 1.8
2015-Jul-19 15:33N 40°38' W 074°09'0 0.3
2015-Jul-19 14:34N 40°38' W 074°10'0 0.0
2015-Jul-19 13:33N 40°38' W 074°10'0 0.0
2015-Jul-19 12:33N 40°38' W 074°10'0 0.0
2015-Jul-19 11:34N 40°38' W 074°10'2 2.3
2015-Jul-19 10:33N 40°41' W 074°08'2 2.3
2015-Jul-19 09:33N 40°38' W 074°10'0 0.0
2015-Jul-19 08:33N 40°38' W 074°10'0 0.0
2015-Jul-19 07:34N 40°38' W 074°10'0 0.0
2015-Jul-19 06:34N 40°38' W 074°10'0 0.0
2015-Jul-19 05:34N 40°38' W 074°10'2 1.8
2015-Jul-19 04:31N 40°38' W 074°12'4 0.9
2015-Jul-19 00:33N 40°40' W 074°08'1 0.9
2015-Jul-18 23:33N 40°41' W 074°09'0 0.0
2015-Jul-18 22:33N 40°41' W 074°09'0 0.5
2015-Jul-18 21:33N 40°40' W 074°08'5 4.6
2015-Jul-18 20:33N 40°38' W 074°03'5 5.1
2015-Jul-18 19:33N 40°38' W 074°10'0 0.0
2015-Jul-18 18:33N 40°38' W 074°10'1 1.5
2015-Jul-18 17:33N 40°40' W 074°09'1 0.9
2015-Jul-18 16:34N 40°40' W 074°08'0 0.0
2015-Jul-18 15:33N 40°40' W 074°08'0 0.0
2015-Jul-18 14:33N 40°40' W 074°08'0 0.0
2015-Jul-18 13:33N 40°40' W 074°08'0 0.0
2015-Jul-18 12:33N 40°40' W 074°08'0 0.4
2015-Jul-18 11:33N 40°40' W 074°08'3 3.1
2015-Jul-18 10:33N 40°39' W 074°05'6 5.7
2015-Jul-18 09:33N 40°42' W 073°58'  

Dump ship's entire track history